Time;durP1;ratioP1;P1;durP2;ratioP2;P2;SDS_P1;SDS_P2;PMS_P1;PMS_P2;Temp;Humidity;BMP_temperature;BMP_pressure;BME280_temperature;BME280_humidity;BME280_pressure;Samples;Min_cycle;Max_cycle;Signal;HPM_P1;HPM_P2
2023/01/14 00:02:04;;;;;;;5.80;5.33;;;;;;;9.21;91.16;99940.63;5053990;28;20200;-71
2023/01/14 00:04:31;;;;;;;5.10;4.80;;;;;;;9.23;91.92;99943.94;5053994;28;20196;-71
2023/01/14 00:06:58;;;;;;;5.40;4.93;;;;;;;9.21;91.65;99945.94;5048540;28;20185;-72
2023/01/14 00:09:27;;;;;;;5.20;4.90;;;;;;;9.21;91.98;99945.94;5033446;28;20198;-72
2023/01/14 00:11:54;;;;;;;14.20;6.80;;;;;;;9.19;92.14;99948.75;5033963;28;20197;-72
2023/01/14 00:14:23;;;;;;;5.17;4.77;;;;;;;9.20;92.89;99949.59;5033801;28;20251;-72
2023/01/14 00:16:52;;;;;;;5.93;5.53;;;;;;;9.20;92.85;99933.69;5048901;28;20204;-72
2023/01/14 00:19:19;;;;;;;6.40;5.90;;;;;;;9.28;92.00;99949.53;5053678;28;20224;-72
2023/01/14 00:21:46;;;;;;;5.73;5.10;;;;;;;9.26;91.18;99940.91;5053927;28;20189;-72
2023/01/14 00:24:15;;;;;;;5.23;4.93;;;;;;;9.23;92.09;99946.59;5053587;28;20784;-71
2023/01/14 00:26:42;;;;;;;5.90;5.40;;;;;;;9.14;92.18;99939.69;5037458;28;20189;-70
2023/01/14 00:29:14;;;;;;;5.47;4.87;;;;;;;9.16;92.39;99950.94;5033179;28;20197;-70
2023/01/14 00:31:42;;;;;;;6.07;5.60;;;;;;;9.05;92.08;99946.88;5038865;28;20727;-70
2023/01/14 00:34:10;;;;;;;5.73;5.37;;;;;;;8.93;92.00;99942.13;5053747;28;20225;-71
2023/01/14 00:36:37;;;;;;;10.77;9.67;;;;;;;8.83;93.08;99950.28;5051680;28;20741;-71
2023/01/14 00:39:04;;;;;;;19.23;14.10;;;;;;;8.75;92.13;99953.00;5053754;28;20266;-71
2023/01/14 00:41:31;;;;;;;22.33;15.60;;;;;;;8.67;92.47;99952.22;5054097;28;20192;-71
2023/01/14 00:43:59;;;;;;;26.30;17.03;;;;;;;8.61;92.46;99947.59;5052770;28;20192;-71
2023/01/14 00:46:28;;;;;;;26.43;17.77;;;;;;;8.50;91.84;99951.44;5039345;28;20247;-72
2023/01/14 00:48:55;;;;;;;28.97;17.90;;;;;;;8.45;93.09;99952.97;5032760;28;20193;-71
2023/01/14 00:51:23;;;;;;;27.53;19.17;;;;;;;8.39;92.86;99954.47;5033980;28;20189;-72
2023/01/14 00:53:50;;;;;;;27.50;19.60;;;;;;;8.38;93.50;99946.72;5047123;28;20272;-71
2023/01/14 00:56:19;;;;;;;29.03;18.67;;;;;;;8.34;94.12;99942.75;5051549;28;20741;-71
2023/01/14 00:58:45;;;;;;;25.83;18.73;;;;;;;8.34;93.69;99942.75;5053352;28;20286;-71
2023/01/14 01:01:13;;;;;;;23.50;18.30;;;;;;;8.27;92.68;99947.91;5052769;28;20192;-72
2023/01/14 01:03:41;;;;;;;28.83;19.70;;;;;;;8.19;93.12;99944.41;5052885;28;20189;-72
2023/01/14 01:06:08;;;;;;;30.90;19.67;;;;;;;8.14;94.30;99939.66;5052208;28;20250;-72
2023/01/14 01:08:37;;;;;;;28.37;19.30;;;;;;;8.18;94.64;99940.13;5051682;28;20200;-72
2023/01/14 01:11:04;;;;;;;29.33;18.27;;;;;;;8.20;94.42;99935.47;5052617;28;20246;-72
2023/01/14 01:13:31;;;;;;;30.10;19.33;;;;;;;8.25;93.84;99939.28;5050010;28;20653;-72
2023/01/14 01:16:01;;;;;;;32.73;20.10;;;;;;;8.32;94.71;99931.50;5032268;28;20254;-71
2023/01/14 01:18:28;;;;;;;30.77;19.80;;;;;;;8.36;93.62;99922.22;5033114;28;20221;-71
2023/01/14 01:21:01;;;;;;;28.27;18.37;;;;;;;8.40;93.09;99923.53;5032675;28;20193;-72
2023/01/14 01:23:28;;;;;;;29.97;19.37;;;;;;;8.41;92.54;99922.56;5032489;28;20294;-71
2023/01/14 01:26:00;;;;;;;27.73;19.27;;;;;;;8.47;93.16;99919.19;5032565;28;20197;-72
2023/01/14 01:28:27;;;;;;;27.23;18.23;;;;;;;8.45;93.79;99919.38;5032305;28;20649;-72
2023/01/14 01:30:53;;;;;;;25.80;17.70;;;;;;;8.44;92.83;99912.44;5046553;28;20200;-72
2023/01/14 01:33:20;;;;;;;32.43;18.77;;;;;;;8.50;92.75;99909.09;5051129;28;20243;-72
2023/01/14 01:35:47;;;;;;;23.20;16.87;;;;;;;8.50;93.27;99913.56;5069803;28;20195;-72
2023/01/14 01:38:13;;;;;;;25.33;16.43;;;;;;;8.52;93.82;99895.69;5072074;28;20219;-72
2023/01/14 01:40:40;;;;;;;29.23;17.70;;;;;;;8.55;92.79;99895.34;5072232;28;20196;-72
2023/01/14 01:43:12;;;;;;;27.17;17.27;;;;;;;8.57;92.82;99898.63;5059011;28;20200;-72
2023/01/14 01:45:44;;;;;;;25.60;17.00;;;;;;;8.54;91.72;99891.03;5051704;28;20254;-72
2023/01/14 01:48:14;;;;;;;22.60;15.30;;;;;;;8.53;92.83;99886.75;5052768;28;20189;-72
2023/01/14 01:50:43;;;;;;;23.20;16.17;;;;;;;8.52;92.90;99879.78;5052242;28;20202;-72
2023/01/14 01:53:10;;;;;;;24.63;16.03;;;;;;;8.47;92.12;99879.50;5040884;28;20546;-72
2023/01/14 01:55:39;;;;;;;20.87;15.20;;;;;;;8.46;93.97;99877.84;5032205;28;20193;-71
2023/01/14 01:58:07;;;;;;;23.10;16.43;;;;;;;8.43;92.73;99871.09;5031798;28;20224;-72
2023/01/14 02:00:35;;;;;;;19.30;15.43;;;;;;;8.36;92.56;99862.19;5031919;28;20814;-72
2023/01/14 02:03:07;;;;;;;19.57;15.53;;;;;;;8.35;92.79;99862.34;5032014;28;20204;-72
2023/01/14 02:05:34;;;;;;;25.07;16.53;;;;;;;8.30;93.38;99854.09;5032304;28;20193;-71
2023/01/14 02:08:01;;;;;;;23.30;17.10;;;;;;;8.28;94.30;99859.56;5045635;28;20259;-71
2023/01/14 02:10:40;;;;;;;25.03;17.80;;;;;;;8.22;93.92;99856.78;5050741;28;20284;-71
2023/01/14 02:13:20;;;;;;;21.63;17.33;;;;;;;8.13;94.24;99853.31;5050443;28;20238;-72
2023/01/14 02:16:00;;;;;;;27.97;17.37;;;;;;;8.14;94.33;99859.44;5052018;28;20180;-71
2023/01/14 02:18:41;;;;;;;26.30;16.77;;;;;;;8.19;94.13;99863.22;5052415;28;20212;-72
2023/01/14 02:21:16;;;;;;;25.97;17.47;;;;;;;8.27;94.56;99859.72;5034910;28;20254;-72
2023/01/14 02:24:16;;;;;;;26.93;17.17;;;;;;;8.32;94.17;99854.75;5041987;28;20285;-72
2023/01/14 02:27:19;;;;;;;27.70;17.40;;;;;;;8.34;93.47;99850.13;5051685;28;20196;-71
2023/01/14 02:30:20;;;;;;;28.83;17.50;;;;;;;8.32;93.18;99852.94;5050636;28;20196;-72
2023/01/14 02:32:54;;;;;;;25.80;17.73;;;;;;;8.27;93.11;99852.63;5051477;28;20196;-71
2023/01/14 02:35:29;;;;;;;23.30;17.13;;;;;;;8.27;94.35;99859.72;5056066;28;20184;-72
2023/01/14 02:38:07;;;;;;;28.90;18.93;;;;;;;8.27;94.71;99850.00;5056393;28;20188;-71
2023/01/14 02:40:41;;;;;;;32.10;19.80;;;;;;;8.24;93.26;99860.06;5044575;28;20197;-71
2023/01/14 02:46:03;;;;;;;32.37;20.40;;;;;;;8.23;94.17;99858.44;5035457;28;20259;-71
2023/01/14 02:48:31;;;;;;;31.77;20.10;;;;;;;8.25;92.69;99865.19;5036398;28;20255;-71
2023/01/14 02:50:59;;;;;;;32.00;21.87;;;;;;;8.26;92.86;99861.56;5047358;28;20648;-71
2023/01/14 02:53:26;;;;;;;27.53;20.37;;;;;;;8.18;92.80;99872.16;5055010;28;20219;-71
2023/01/14 02:55:53;;;;;;;34.67;21.27;;;;;;;8.09;93.19;99862.59;5054918;28;20664;-71
2023/01/14 02:58:40;;;;;;;32.93;21.67;;;;;;;8.02;92.69;99876.66;5055029;28;20592;-71
2023/01/14 03:01:27;;;;;;;34.37;20.43;;;;;;;7.95;93.87;99870.41;5043392;28;20192;-71
2023/01/14 03:04:10;;;;;;;29.57;21.67;;;;;;;7.90;94.02;99878.03;5055996;28;20525;-71
2023/01/14 03:06:48;;;;;;;30.10;19.73;;;;;;;7.85;94.09;99880.34;5054698;28;20189;-71
2023/01/14 03:09:22;;;;;;;31.37;20.97;;;;;;;7.74;94.38;99878.06;5054741;28;20191;-71
2023/01/14 03:11:56;;;;;;;36.03;20.23;;;;;;;7.63;94.79;99875.78;5036651;28;20185;-71
2023/01/14 03:14:27;;;;;;;28.03;19.83;;;;;;;7.61;94.89;99877.75;5035293;28;20605;-71
2023/01/14 03:17:02;;;;;;;26.43;19.27;;;;;;;7.57;96.63;99873.81;5034670;28;20181;-71
2023/01/14 03:19:33;;;;;;;37.47;19.90;;;;;;;7.55;96.22;99878.44;5046427;28;20679;-72
2023/01/14 03:22:03;;;;;;;32.27;20.27;;;;;;;7.49;96.52;99879.09;5054101;28;20283;-72
2023/01/14 03:24:33;;;;;;;25.47;18.00;;;;;;;7.57;98.02;99881.72;5055636;28;20290;-72
2023/01/14 03:27:05;;;;;;;25.87;18.50;;;;;;;7.56;97.56;99872.97;5054438;28;20236;-72
2023/01/14 03:29:37;;;;;;;27.93;18.03;;;;;;;7.56;98.01;99880.91;5044031;28;20653;-72
2023/01/14 03:32:10;;;;;;;27.47;18.77;;;;;;;7.60;98.37;99876.13;5054264;28;20744;-72
2023/01/14 03:34:42;;;;;;;31.97;18.73;;;;;;;7.59;97.80;99875.28;5054827;28;20188;-71
2023/01/14 03:37:13;;;;;;;27.77;19.23;;;;;;;7.61;98.67;99873.31;5053752;28;20219;-72
2023/01/14 03:39:42;;;;;;;30.70;18.90;;;;;;;7.60;97.84;99876.13;5041002;28;20214;-72
2023/01/14 03:42:21;;;;;;;24.80;18.47;;;;;;;7.69;98.36;99877.75;5036287;28;20219;-72
2023/01/14 03:44:58;;;;;;;30.20;18.77;;;;;;;7.69;98.15;99872.47;5053093;28;20188;-72
2023/01/14 03:47:28;;;;;;;29.93;19.80;;;;;;;7.73;97.75;99881.72;5049294;28;20642;-71
2023/01/14 03:49:58;;;;;;;33.20;18.53;;;;;;;7.73;98.44;99882.53;5054607;28;20196;-72
2023/01/14 03:52:36;;;;;;;24.77;18.53;;;;;;;7.72;98.05;99886.16;5052620;28;20192;-72
2023/01/14 03:55:08;;;;;;;26.50;17.07;;;;;;;7.67;97.52;99882.41;5053966;28;20644;-72
2023/01/14 03:57:41;;;;;;;29.20;16.97;;;;;;;7.66;97.79;99883.38;5053299;28;20184;-72
2023/01/14 04:00:13;;;;;;;28.37;17.43;;;;;;;7.69;98.58;99883.03;5053887;28;20638;-71
2023/01/14 04:02:42;;;;;;;23.80;16.60;;;;;;;7.71;99.46;99883.69;5053332;28;20184;-72
2023/01/14 04:05:10;;;;;;;26.73;17.97;;;;;;;7.73;99.07;99877.25;5054236;28;20192;-72
2023/01/14 04:07:36;;;;;;;35.53;17.83;;;;;;;7.71;98.50;99878.38;5053438;28;20196;-72
2023/01/14 04:10:03;;;;;;;28.67;18.00;;;;;;;7.75;99.45;99869.13;5053619;28;20196;-72
2023/01/14 04:12:30;;;;;;;32.37;18.43;;;;;;;7.78;99.53;99869.63;5046201;28;20643;-72
2023/01/14 04:17:42;;;;;;;31.50;17.97;;;;;;;7.90;98.71;99868.28;5053540;28;20627;-72
2023/01/14 04:20:10;;;;;;;28.63;17.73;;;;;;;7.95;99.02;99868.59;5053872;28;20290;-72
2023/01/14 04:22:37;;;;;;;25.70;17.07;;;;;;;8.03;97.92;99865.09;5052153;28;20188;-72
2023/01/14 04:25:04;;;;;;;27.80;17.17;;;;;;;8.05;98.26;99876.34;5053391;28;20242;-72
2023/01/14 04:27:30;;;;;;;21.77;15.43;;;;;;;8.09;97.97;99877.66;5053181;28;20619;-72
2023/01/14 04:29:57;;;;;;;32.97;18.13;;;;;;;8.14;97.07;99883.25;5047432;28;20558;-73
2023/01/14 04:32:24;;;;;;;24.40;16.97;;;;;;;8.18;97.46;99881.91;5033290;28;20581;-72
2023/01/14 04:34:52;;;;;;;27.47;16.63;;;;;;;8.18;96.91;99881.91;5036988;28;20189;-71
2023/01/14 04:37:19;;;;;;;26.97;17.07;;;;;;;8.21;97.24;99886.91;5052984;28;20196;-72
2023/01/14 04:39:46;;;;;;;25.73;16.17;;;;;;;8.24;96.78;99882.06;5053278;28;20662;-72
2023/01/14 04:42:28;;;;;;;26.30;16.27;;;;;;;8.23;97.31;99884.88;5051608;28;20200;-70
2023/01/14 04:44:55;;;;;;;26.77;16.70;;;;;;;8.27;96.38;99883.56;5033727;28;20216;-71
2023/01/14 04:47:22;;;;;;;24.43;16.87;;;;;;;8.32;96.83;99889.16;5033217;28;20250;-71
2023/01/14 04:49:48;;;;;;;26.37;16.57;;;;;;;8.28;97.52;99893.97;5034124;28;20262;-71
2023/01/14 04:52:17;;;;;;;25.70;16.73;;;;;;;8.30;96.78;99888.50;5046748;28;20200;-71
2023/01/14 04:54:44;;;;;;;25.83;15.63;;;;;;;8.32;97.43;99899.72;5053719;28;20193;-70
2023/01/14 04:57:11;;;;;;;26.17;16.53;;;;;;;8.27;96.41;99897.63;5052113;28;20198;-71
2023/01/14 04:59:38;;;;;;;27.60;17.20;;;;;;;8.27;96.73;99899.44;5052752;28;20278;-71
2023/01/14 05:02:05;;;;;;;31.87;17.67;;;;;;;8.24;97.22;99899.75;5038450;28;20664;-70
2023/01/14 05:04:32;;;;;;;31.70;16.97;;;;;;;8.19;97.72;99900.25;5032493;28;20197;-70
2023/01/14 05:07:01;;;;;;;28.97;18.03;;;;;;;8.20;97.12;99901.91;5032555;28;20559;-70
2023/01/14 05:09:29;;;;;;;36.60;20.47;;;;;;;8.27;97.74;99899.44;5032279;28;20576;-70
2023/01/14 05:11:56;;;;;;;26.93;18.07;;;;;;;8.22;96.53;99902.59;5043665;28;20652;-71
2023/01/14 05:14:22;;;;;;;31.57;18.50;;;;;;;8.17;97.68;99899.59;5052762;28;20258;-71
2023/01/14 05:16:49;;;;;;;32.10;18.93;;;;;;;8.14;96.55;99902.59;5052331;28;20188;-72
2023/01/14 05:19:16;;;;;;;31.37;19.17;;;;;;;8.03;96.58;99904.75;5048499;28;20220;-71
2023/01/14 05:21:43;;;;;;;34.23;18.80;;;;;;;8.00;98.03;99905.13;5032414;28;20193;-71
2023/01/14 05:24:10;;;;;;;39.03;19.07;;;;;;;8.00;98.50;99900.63;5032207;28;20290;-72
2023/01/14 05:26:38;;;;;;;33.70;18.47;;;;;;;8.01;98.74;99902.28;5032635;28;20196;-71
2023/01/14 05:29:05;;;;;;;38.07;19.73;;;;;;;8.01;99.18;99891.69;5040319;28;20628;-71
2023/01/14 05:31:32;;;;;;;38.57;20.20;;;;;;;8.05;99.16;99889.56;5050274;28;20668;-71
2023/01/14 05:33:59;;;;;;;39.40;19.80;;;;;;;7.95;99.11;99875.69;5052152;28;20254;-71
2023/01/14 05:36:26;;;;;;;38.30;19.80;;;;;;;8.07;99.12;99892.84;5052677;28;20200;-72
2023/01/14 05:38:53;;;;;;;36.60;19.60;;;;;;;8.11;98.58;99894.16;5051007;28;20727;-73
2023/01/14 05:41:20;;;;;;;39.73;20.40;;;;;;;8.10;98.70;99898.66;5032468;28;20258;-72
2023/01/14 05:46:32;;;;;;;39.20;19.63;;;;;;;8.01;98.91;99901.47;5032248;28;20707;-71
2023/01/14 05:48:59;;;;;;;39.23;19.77;;;;;;;8.00;98.78;99899.84;5032608;28;20735;-70
2023/01/14 05:51:25;;;;;;;39.83;21.00;;;;;;;7.92;98.51;99886.63;5031739;28;20198;-68
2023/01/14 05:53:52;;;;;;;44.67;21.63;;;;;;;7.90;99.04;99888.59;5032148;28;20193;-70
2023/01/14 05:56:19;;;;;;;41.63;21.47;;;;;;;7.92;99.77;99898.03;5032275;28;20266;-68
2023/01/14 05:58:46;;;;;;;38.57;19.50;;;;;;;7.94;99.43;99880.19;5039813;28;20196;-68
2023/01/14 06:06:47;;;;;;;44.23;20.63;;;;;;;7.95;100.00;99894.19;5050958;28;20330;-69
2023/01/14 06:09:15;;;;;;;40.70;21.83;;;;;;;7.81;99.94;99887.81;5037513;28;20724;-68
2023/01/14 06:11:43;;;;;;;43.03;21.37;;;;;;;7.83;100.00;99890.25;5036041;28;20250;-67
2023/01/14 06:14:10;;;;;;;39.00;20.93;;;;;;;7.81;100.00;99884.34;5035538;28;20204;-68
2023/01/14 06:16:39;;;;;;;42.17;20.97;;;;;;;7.85;100.00;99888.28;5035637;28;20663;-69
2023/01/14 06:19:07;;;;;;;45.30;22.33;;;;;;;7.89;100.00;99889.59;5049739;28;20192;-70
2023/01/14 06:21:34;;;;;;;41.27;21.30;;;;;;;7.90;100.00;99892.09;5055033;28;20351;-69
2023/01/14 06:24:01;;;;;;;46.43;22.03;;;;;;;7.86;100.00;99889.94;5053379;28;20687;-69
2023/01/14 06:26:28;;;;;;;45.33;23.10;;;;;;;7.95;100.00;99896.84;5055562;28;20200;-69
2023/01/14 06:28:58;;;;;;;49.80;25.57;;;;;;;7.99;100.00;99893.72;5054305;28;20585;-68
2023/01/14 06:31:26;;;;;;;50.40;25.57;;;;;;;8.06;100.00;99893.84;5037372;28;20216;-67
2023/01/14 06:33:55;;;;;;;52.33;25.67;;;;;;;8.09;100.00;99888.22;5035167;28;20661;-69
2023/01/14 06:36:22;;;;;;;48.80;23.67;;;;;;;8.08;100.00;99892.69;5035349;28;20209;-68
2023/01/14 06:38:49;;;;;;;56.83;25.53;;;;;;;8.09;100.00;99891.69;5046535;28;20275;-69
2023/01/14 06:41:16;;;;;;;58.43;25.90;;;;;;;8.13;100.00;99894.84;5054868;28;20269;-68
2023/01/14 06:43:44;;;;;;;56.27;26.53;;;;;;;8.11;100.00;99886.22;5054187;28;20196;-69
2023/01/14 06:46:11;;;;;;;51.27;24.27;;;;;;;8.11;99.62;99896.81;5054605;28;20192;-66
2023/01/14 06:48:38;;;;;;;49.50;25.17;;;;;;;8.03;98.65;99895.03;5053623;28;20262;-68
2023/01/14 06:51:08;;;;;;;50.67;23.90;;;;;;;7.97;99.66;99889.59;5055242;28;20243;-69
2023/01/14 06:53:35;;;;;;;48.47;25.07;;;;;;;7.87;100.00;99889.78;5055943;28;20250;-68
2023/01/14 06:56:04;;;;;;;46.87;23.40;;;;;;;7.81;100.00;99900.19;5055086;28;20256;-69
2023/01/14 06:58:31;;;;;;;48.27;26.27;;;;;;;7.76;100.00;99902.53;5053393;28;20318;-69
2023/01/14 07:00:58;;;;;;;51.07;25.47;;;;;;;7.73;100.00;99897.56;5053421;28;20287;-69
2023/01/14 07:03:25;;;;;;;54.87;27.10;;;;;;;7.68;100.00;99891.97;5054378;28;20799;-69
2023/01/14 07:05:52;;;;;;;58.07;27.20;;;;;;;7.71;100.00;99896.91;5055872;28;20200;-66
2023/01/14 07:08:21;;;;;;;50.67;26.47;;;;;;;7.62;100.00;99892.63;5053860;28;20216;-66
2023/01/14 07:10:50;;;;;;;52.93;26.07;;;;;;;7.69;100.00;99906.84;5054515;28;20250;-66
2023/01/14 07:13:17;;;;;;;52.27;25.37;;;;;;;7.79;100.00;99907.47;5054436;28;20714;-67
2023/01/14 07:15:44;;;;;;;50.00;24.90;;;;;;;7.82;100.00;99912.41;5054781;28;20288;-67
2023/01/14 07:18:10;;;;;;;53.57;24.77;;;;;;;7.82;100.00;99904.50;5053936;28;20266;-68
2023/01/14 07:20:37;;;;;;;54.10;26.57;;;;;;;7.87;100.00;99910.09;5054745;28;20252;-67
2023/01/14 07:23:04;;;;;;;51.03;25.53;;;;;;;7.86;100.00;99908.44;5054535;28;20224;-68
2023/01/14 07:25:32;;;;;;;48.80;24.57;;;;;;;7.87;100.00;99905.63;5043947;28;20208;-68
2023/01/14 07:28:00;;;;;;;47.67;24.03;;;;;;;7.90;100.00;99909.75;5034241;28;20572;-69
2023/01/14 07:30:27;;;;;;;49.33;25.47;;;;;;;7.91;100.00;99890.25;5043860;28;20262;-69
2023/01/14 07:32:54;;;;;;;57.20;26.40;;;;;;;8.02;100.00;99908.41;5053992;28;20224;-69
2023/01/14 07:35:20;;;;;;;48.10;22.80;;;;;;;8.00;100.00;99908.56;5052973;28;20660;-68
2023/01/14 07:37:47;;;;;;;42.47;21.53;;;;;;;8.04;100.00;99906.44;5054277;28;20273;-68
2023/01/14 07:40:14;;;;;;;42.67;22.50;;;;;;;8.08;100.00;99907.75;5053345;28;20285;-69
2023/01/14 07:42:42;;;;;;;48.17;24.40;;;;;;;8.16;100.00;99900.59;5054161;28;20258;-68
2023/01/14 07:45:10;;;;;;;44.87;24.30;;;;;;;8.24;100.00;99897.94;5047352;28;20195;-68
2023/01/14 07:47:36;;;;;;;48.50;23.77;;;;;;;8.37;100.00;99913.31;5034202;28;20275;-69
2023/01/14 07:50:04;;;;;;;42.77;23.40;;;;;;;8.41;100.00;99904.03;5034227;28;20201;-69
2023/01/14 07:52:30;;;;;;;51.83;25.07;;;;;;;8.42;99.67;99906.47;5034157;28;20205;-69
2023/01/14 07:54:57;;;;;;;60.67;25.03;;;;;;;8.48;99.31;99904.97;5035688;28;20680;-70
2023/01/14 07:57:24;;;;;;;43.07;24.90;;;;;;;8.53;99.52;99908.75;5054534;28;20193;-69
2023/01/14 07:59:52;;;;;;;53.03;24.77;;;;;;;8.58;97.85;99905.59;5053518;28;20224;-69
2023/01/14 08:02:20;;;;;;;48.07;24.43;;;;;;;8.55;98.47;99905.94;5053093;28;20200;-69
2023/01/14 08:04:47;;;;;;;41.07;23.57;;;;;;;8.62;98.75;99901.59;5053409;28;20215;-69
2023/01/14 08:07:14;;;;;;;43.37;24.20;;;;;;;8.68;98.26;99904.38;5053766;28;20189;-69
2023/01/14 08:09:40;;;;;;;41.93;24.03;;;;;;;8.69;97.64;99907.81;5053658;28;20260;-69
2023/01/14 08:12:07;;;;;;;41.00;22.27;;;;;;;8.71;97.93;99911.97;5046071;28;20185;-69
2023/01/14 08:14:34;;;;;;;43.60;23.63;;;;;;;8.81;97.49;99912.56;5033369;28;20193;-69
2023/01/14 08:17:04;;;;;;;42.57;22.50;;;;;;;8.90;97.36;99910.72;5035496;28;20200;-69
2023/01/14 08:19:31;;;;;;;37.37;22.27;;;;;;;8.94;96.70;99909.38;5053516;28;20181;-69
2023/01/14 08:21:58;;;;;;;40.67;22.37;;;;;;;8.89;95.11;99914.34;5047780;28;20217;-69
2023/01/14 08:24:25;;;;;;;32.77;21.47;;;;;;;8.81;94.84;99912.56;5033808;28;20229;-69
2023/01/14 08:26:52;;;;;;;56.70;23.13;;;;;;;8.89;95.45;99925.78;5034056;28;20201;-69
2023/01/14 08:29:18;;;;;;;37.57;22.87;;;;;;;8.98;96.16;99924.72;5033589;28;20215;-70
2023/01/14 08:31:45;;;;;;;40.90;22.03;;;;;;;9.05;94.92;99924.84;5050939;28;20665;-69
2023/01/14 08:34:13;;;;;;;46.07;24.43;;;;;;;9.17;94.03;99934.03;5053261;28;20189;-69
2023/01/14 08:36:41;;;;;;;38.33;21.70;;;;;;;9.22;93.89;99936.97;5053105;28;20201;-69
2023/01/14 08:39:09;;;;;;;38.47;22.93;;;;;;;9.25;92.31;99941.94;5052562;28;20272;-69
2023/01/14 08:41:36;;;;;;;38.67;22.67;;;;;;;9.32;92.47;99938.38;5051983;28;20220;-68
2023/01/14 08:44:03;;;;;;;38.87;23.37;;;;;;;9.41;92.38;99945.28;5052615;28;20621;-69
2023/01/14 08:46:30;;;;;;;38.60;23.43;;;;;;;9.49;91.84;99929.31;5052955;28;20196;-69
2023/01/14 08:48:56;;;;;;;42.87;24.77;;;;;;;9.51;90.34;99934.41;5052607;28;20196;-69
2023/01/14 08:51:26;;;;;;;38.87;25.03;;;;;;;9.52;89.63;99938.75;5052496;28;20668;-69
2023/01/14 08:53:53;;;;;;;51.90;26.53;;;;;;;9.45;89.69;99928.03;5043395;28;20622;-70
2023/01/14 08:56:20;;;;;;;51.93;28.57;;;;;;;9.51;90.04;99937.06;5032704;28;20279;-69
2023/01/14 08:58:46;;;;;;;48.90;27.20;;;;;;;9.47;90.60;99930.47;5032511;28;20594;-69
2023/01/14 09:01:14;;;;;;;49.20;26.50;;;;;;;9.58;90.48;99940.66;5032604;28;20221;-69
2023/01/14 09:03:42;;;;;;;43.07;26.03;;;;;;;9.62;90.27;99939.31;5049509;28;20742;-69
2023/01/14 09:06:11;;;;;;;43.57;25.27;;;;;;;9.66;89.78;99935.28;5052447;28;20223;-68
2023/01/14 09:17:07;;;;;;;43.93;23.70;;;;;;;9.77;88.80;99927.72;5042955;28;20251;-69
2023/01/14 09:19:35;;;;;;;51.70;24.97;;;;;;;9.74;89.21;99922.81;5032918;28;20190;-70
2023/01/14 09:22:03;;;;;;;93.23;26.47;;;;;;;9.80;89.48;99921.25;5032332;28;20316;-70
2023/01/14 09:24:31;;;;;;;52.53;25.17;;;;;;;9.83;88.78;99924.38;5052643;28;20228;-69
2023/01/14 09:26:57;;;;;;;52.50;26.30;;;;;;;9.93;88.42;99932.88;5052680;28;20197;-69
2023/01/14 09:29:24;;;;;;;39.87;25.80;;;;;;;9.97;87.82;99928.03;5050753;28;20192;-70
2023/01/14 09:31:51;;;;;;;41.40;24.50;;;;;;;10.01;88.52;99929.34;5043329;28;20663;-69
2023/01/14 09:34:18;;;;;;;42.30;25.57;;;;;;;10.06;87.97;99932.28;5051834;28;20265;-70
2023/01/14 09:36:45;;;;;;;45.90;26.23;;;;;;;10.04;87.98;99932.44;5051749;28;20236;-69
2023/01/14 09:39:12;;;;;;;47.27;26.43;;;;;;;10.04;87.54;99918.34;5051927;28;20193;-69
2023/01/14 09:41:50;;;;;;;48.53;27.43;;;;;;;10.10;87.39;99920.31;5041123;28;20637;-69
2023/01/14 09:44:17;;;;;;;57.97;28.63;;;;;;;10.14;86.98;99918.94;5031000;28;20189;-69
2023/01/14 09:46:43;;;;;;;53.70;29.70;;;;;;;10.07;87.33;99928.63;5031896;28;20189;-69
2023/01/14 09:49:14;;;;;;;56.33;31.80;;;;;;;9.75;86.92;99910.34;5046693;28;20236;-69
2023/01/14 09:52:11;;;;;;;52.03;31.87;;;;;;;9.60;88.25;99909.50;5051942;28;20553;-69
2023/01/14 09:54:44;;;;;;;51.53;30.03;;;;;;;9.76;88.91;99909.34;5051668;28;20188;-69
2023/01/14 09:57:19;;;;;;;55.77;29.67;;;;;;;9.82;88.37;99911.28;5052202;28;20188;-69
2023/01/14 09:59:56;;;;;;;54.33;27.60;;;;;;;9.72;89.49;99905.41;5032100;28;20184;-69
2023/01/14 10:02:26;;;;;;;47.50;28.07;;;;;;;9.68;90.46;99904.94;5032637;28;20204;-69
2023/01/14 10:05:06;;;;;;;46.47;27.40;;;;;;;9.74;90.59;99900.75;5031716;28;20193;-70
2023/01/14 10:07:34;;;;;;;46.67;26.43;;;;;;;9.73;92.00;99891.16;5031549;28;20211;-70
2023/01/14 10:10:03;;;;;;;50.73;27.53;;;;;;;9.78;91.74;99891.41;5046467;28;20196;-69
2023/01/14 10:12:36;;;;;;;50.87;27.73;;;;;;;9.86;91.93;99899.28;5051657;28;20623;-69
2023/01/14 10:15:20;;;;;;;41.23;27.30;;;;;;;9.95;91.60;99896.38;5051715;28;20193;-68
2023/01/14 10:17:51;;;;;;;42.57;27.17;;;;;;;10.01;91.09;99893.00;5049215;28;20239;-69
2023/01/14 10:20:27;;;;;;;43.63;27.57;;;;;;;10.04;91.22;99886.47;5031643;28;20243;-70
2023/01/14 10:23:02;;;;;;;45.07;27.50;;;;;;;10.05;90.41;99877.56;5031912;28;20355;-69
2023/01/14 10:25:29;;;;;;;42.00;26.97;;;;;;;10.09;88.77;99886.81;5040836;28;20210;-68
2023/01/14 10:28:00;;;;;;;42.43;26.77;;;;;;;10.10;89.60;99885.81;5034495;28;20204;-68
2023/01/14 10:30:31;;;;;;;49.73;30.67;;;;;;;10.14;90.12;99887.09;5040911;28;20185;-69
2023/01/14 10:33:02;;;;;;;45.43;27.13;;;;;;;9.91;89.01;99854.47;5052508;28;20266;-70
2023/01/14 10:35:33;;;;;;;44.50;28.50;;;;;;;10.02;89.53;99883.22;5051652;28;20188;-69
2023/01/14 10:38:00;;;;;;;42.73;27.07;;;;;;;10.06;89.79;99873.91;5034439;28;20204;-69
2023/01/14 10:40:28;;;;;;;46.50;29.10;;;;;;;10.13;90.05;99880.13;5030912;28;20196;-69
2023/01/14 10:42:59;;;;;;;51.90;28.23;;;;;;;10.17;90.10;99876.09;5031249;28;20670;-67
2023/01/14 10:45:26;;;;;;;44.90;28.17;;;;;;;10.01;89.28;99865.66;5031249;28;20225;-69
2023/01/14 10:48:02;;;;;;;43.40;28.53;;;;;;;10.00;90.32;99871.94;5049922;28;20568;-67
2023/01/14 10:50:30;;;;;;;45.87;29.53;;;;;;;10.06;90.27;99864.09;5051669;28;20188;-69
2023/01/14 10:53:15;;;;;;;45.50;28.77;;;;;;;10.05;89.36;99861.66;5051283;28;20242;-67
2023/01/14 10:55:49;;;;;;;44.73;29.10;;;;;;;10.10;89.00;99864.56;5054080;28;20269;-69
2023/01/14 10:58:21;;;;;;;44.37;28.77;;;;;;;10.07;89.34;99867.59;5035449;28;20189;-67
2023/01/14 11:00:50;;;;;;;49.30;30.00;;;;;;;10.12;88.22;99871.34;5035071;28;20267;-67
2023/01/14 11:03:24;;;;;;;43.90;29.63;;;;;;;10.14;88.43;99865.84;5049883;28;20266;-67
2023/01/14 11:05:56;;;;;;;50.90;29.83;;;;;;;10.18;88.97;99862.63;5053387;28;20724;-68
2023/01/14 11:08:27;;;;;;;47.00;30.50;;;;;;;10.23;88.87;99859.44;5055308;28;20258;-67
2023/01/14 11:10:58;;;;;;;49.57;31.87;;;;;;;10.23;88.64;99867.38;5055272;28;20185;-68
2023/01/14 11:13:32;;;;;;;48.53;31.23;;;;;;;10.26;89.41;99859.06;5055703;28;20250;-69
2023/01/14 11:15:59;;;;;;;46.80;31.00;;;;;;;10.27;89.54;99863.34;5057823;28;20196;-67
2023/01/14 11:18:29;;;;;;;54.03;32.53;;;;;;;10.29;89.96;99858.69;5069689;28;20196;-68
2023/01/14 11:21:05;;;;;;;54.03;32.50;;;;;;;10.32;89.07;99859.16;5054383;28;20221;-67
2023/01/14 11:23:34;;;;;;;52.87;32.63;;;;;;;10.33;89.18;99865.25;5053163;28;20232;-67
2023/01/14 11:26:07;;;;;;;50.30;31.60;;;;;;;10.37;89.36;99861.22;5053532;28;20193;-67
2023/01/14 11:28:37;;;;;;;55.60;32.03;;;;;;;10.39;89.28;99859.22;5055266;28;20192;-69
2023/01/14 11:31:05;;;;;;;52.77;31.77;;;;;;;10.40;89.07;99858.22;5051853;28;20189;-67
2023/01/14 11:33:33;;;;;;;51.47;32.77;;;;;;;10.40;88.79;99850.25;5054085;28;20709;-68
2023/01/14 11:36:01;;;;;;;54.77;35.90;;;;;;;10.42;88.88;99849.03;5053764;28;20284;-69
2023/01/14 11:38:29;;;;;;;54.53;32.70;;;;;;;10.40;88.62;99855.56;5054973;28;20197;-69
2023/01/14 11:43:57;;;;;;;56.33;33.90;;;;;;;10.23;89.34;99854.13;5038964;28;20197;-69
2023/01/14 11:46:23;;;;;;;53.90;33.53;;;;;;;10.20;89.79;99860.63;5033846;28;20182;-68
2023/01/14 11:49:00;;;;;;;55.43;33.67;;;;;;;10.23;90.24;99849.66;5033879;28;20669;-68
2023/01/14 11:51:27;;;;;;;54.70;34.33;;;;;;;10.27;90.43;99852.75;5033976;28;20246;-68
2023/01/14 11:53:56;;;;;;;52.47;33.53;;;;;;;10.29;90.92;99850.72;5052300;28;20628;-68
2023/01/14 11:56:31;;;;;;;52.37;33.43;;;;;;;10.30;90.81;99847.06;5053507;28;20572;-68
2023/01/14 11:59:02;;;;;;;60.17;34.83;;;;;;;10.26;90.67;99837.81;5053964;28;20191;-67
2023/01/14 12:01:33;;;;;;;56.70;35.47;;;;;;;10.34;90.73;99851.00;5052409;28;20244;-68